Time;durP1;ratioP1;P1;durP2;ratioP2;P2;SDS_P1;SDS_P2;PMS_P1;PMS_P2;Temp;Humidity;BMP_temperature;BMP_pressure;BME280_temperature;BME280_humidity;BME280_pressure;Samples;Min_cycle;Max_cycle;Signal;HPM_P1;HPM_P2
2022/09/15 00:00:02;;;;;;;;;;;12.50;99.90;;;;;;5020465;27;90179;-33
2022/09/15 00:02:27;;;;;;;;;;;12.50;99.90;;;;;;5018760;27;89850;-31
2022/09/15 00:04:53;;;;;;;;;;;12.50;99.90;;;;;;5024496;28;88930;-32
2022/09/15 00:07:19;;;;;;;;;;;12.50;99.90;;;;;;5024403;28;88559;-33
2022/09/15 00:09:44;;;;;;;;;;;12.50;99.90;;;;;;5024540;27;90007;-34
2022/09/15 00:12:10;;;;;;;;;;;12.50;99.90;;;;;;5023689;28;88770;-30
2022/09/15 00:14:35;;;;;;;;;;;12.50;99.90;;;;;;5023603;28;89071;-32
2022/09/15 00:17:01;;;;;;;;;;;12.50;99.90;;;;;;5025472;28;89434;-30
2022/09/15 00:19:26;;;;;;;;;;;12.50;99.90;;;;;;5023513;28;90115;-30
2022/09/15 00:21:52;;;;;;;;;;;12.50;99.90;;;;;;5023844;28;90497;-30
2022/09/15 00:24:17;;;;;;;;;;;12.50;99.90;;;;;;5023472;28;89887;-34
2022/09/15 00:26:43;;;;;;;;;;;12.50;99.90;;;;;;5024679;28;88612;-31
2022/09/15 00:29:09;;;;;;;;;;;12.50;99.90;;;;;;5023121;28;90103;-34
2022/09/15 00:31:34;;;;;;;;;;;12.50;99.90;;;;;;5024163;27;90428;-30
2022/09/15 00:34:01;;;;;;;;;;;12.50;99.90;;;;;;5023543;28;89141;-29
2022/09/15 00:36:27;;;;;;;;;;;12.50;99.90;;;;;;5023645;27;88153;-32
2022/09/15 00:41:30;;;;;;;;;;;12.50;99.90;;;;;;5022404;28;89812;-31
2022/09/15 00:44:00;;;;;;;;;;;12.50;99.90;;;;;;5023736;28;88979;-29
2022/09/15 00:46:28;;;;;;;;;;;12.60;99.90;;;;;;5009522;28;88426;-31
2022/09/15 00:49:00;;;;;;;;;;;12.60;99.90;;;;;;5023178;28;90152;-29
2022/09/15 00:51:29;;;;;;;;;;;12.60;99.90;;;;;;5022864;28;91272;-31
2022/09/15 00:53:56;;;;;;;;;;;12.60;99.90;;;;;;5023546;27;89802;-32
2022/09/15 00:56:22;;;;;;;;;;;12.70;99.90;;;;;;5023746;28;89400;-35
2022/09/15 00:58:51;;;;;;;;;;;12.70;99.90;;;;;;5023908;27;89917;-29
2022/09/15 01:01:16;;;;;;;;;;;12.80;99.90;;;;;;5023406;27;90011;-30
2022/09/15 01:03:42;;;;;;;;;;;12.80;99.90;;;;;;5022947;27;89661;-30
2022/09/15 01:06:14;;;;;;;;;;;12.80;99.90;;;;;;5024384;27;88737;-29
2022/09/15 01:08:44;;;;;;;;;;;12.80;99.90;;;;;;5023816;27;90321;-31
2022/09/15 01:11:10;;;;;;;;;;;12.90;99.90;;;;;;5022263;27;90654;-33
2022/09/15 01:13:36;;;;;;;;;;;13.00;99.90;;;;;;5022761;27;89670;-29
2022/09/15 01:16:01;;;;;;;;;;;12.90;99.90;;;;;;5023659;28;89088;-29
2022/09/15 01:18:39;;;;;;;;;;;13.00;99.90;;;;;;5023148;28;90305;-29
2022/09/15 01:21:07;;;;;;;;;;;13.00;99.90;;;;;;5023914;28;89876;-31
2022/09/15 01:23:35;;;;;;;;;;;13.10;99.90;;;;;;5022850;28;89083;-30
2022/09/15 01:26:19;;;;;;;;;;;13.10;99.90;;;;;;5023625;28;90161;-29
2022/09/15 01:28:57;;;;;;;;;;;13.10;99.90;;;;;;5023530;28;90815;-30
2022/09/15 01:31:24;;;;;;;;;;;13.20;99.90;;;;;;5023191;28;90122;-30
2022/09/15 01:34:05;;;;;;;;;;;13.20;99.90;;;;;;5022967;28;88290;-31
2022/09/15 01:36:37;;;;;;;;;;;13.20;99.90;;;;;;5023057;27;89890;-31
2022/09/15 01:39:06;;;;;;;;;;;13.20;99.90;;;;;;5022687;28;90115;-32
2022/09/15 01:41:34;;;;;;;;;;;13.30;99.90;;;;;;5023310;27;89787;-34
2022/09/15 01:44:05;;;;;;;;;;;13.30;99.90;;;;;;5023359;28;89231;-31
2022/09/15 01:46:33;;;;;;;;;;;13.30;99.90;;;;;;5023927;27;88445;-30
2022/09/15 01:49:00;;;;;;;;;;;13.30;99.90;;;;;;5022733;27;90085;-32
2022/09/15 01:51:27;;;;;;;;;;;13.30;99.90;;;;;;5022810;27;90837;-31
2022/09/15 01:53:53;;;;;;;;;;;13.40;99.90;;;;;;5022632;27;89468;-33
2022/09/15 01:56:18;;;;;;;;;;;13.40;99.90;;;;;;5023365;27;89450;-30
2022/09/15 01:58:44;;;;;;;;;;;13.40;99.90;;;;;;5022132;28;90513;-32
2022/09/15 02:01:13;;;;;;;;;;;13.40;99.90;;;;;;5022649;28;90873;-30
2022/09/15 02:03:44;;;;;;;;;;;13.40;99.90;;;;;;5023264;28;90124;-32
2022/09/15 02:06:32;;;;;;;;;;;13.40;99.90;;;;;;5023346;28;88538;-30
2022/09/15 02:09:01;;;;;;;;;;;13.40;99.90;;;;;;5023359;28;88914;-34
2022/09/15 02:11:27;;;;;;;;;;;13.40;99.90;;;;;;5021949;28;89789;-33
2022/09/15 02:14:09;;;;;;;;;;;13.40;99.90;;;;;;5022723;28;88697;-31
2022/09/15 02:16:35;;;;;;;;;;;13.40;99.90;;;;;;5023144;27;87605;-30
2022/09/15 02:19:09;;;;;;;;;;;13.40;99.90;;;;;;5022522;28;89804;-32
2022/09/15 02:21:39;;;;;;;;;;;13.40;99.90;;;;;;5022811;28;90465;-30
2022/09/15 02:24:07;;;;;;;;;;;13.40;99.90;;;;;;5022222;27;88679;-30
2022/09/15 02:26:34;;;;;;;;;;;13.40;99.90;;;;;;5021823;27;88069;-33
2022/09/15 02:29:03;;;;;;;;;;;13.50;99.90;;;;;;5021855;27;90142;-29
2022/09/15 02:31:31;;;;;;;;;;;13.50;99.90;;;;;;5022426;27;91126;-30
2022/09/15 02:34:00;;;;;;;;;;;13.50;99.90;;;;;;5021562;28;89161;-30
2022/09/15 02:36:27;;;;;;;;;;;13.50;99.90;;;;;;5022015;27;87885;-30
2022/09/15 02:38:56;;;;;;;;;;;13.50;99.90;;;;;;5022020;27;89206;-30
2022/09/15 02:41:22;;;;;;;;;;;13.50;99.90;;;;;;5022417;27;89316;-30
2022/09/15 02:43:48;;;;;;;;;;;13.50;99.90;;;;;;5022465;28;89491;-30
2022/09/15 02:46:15;;;;;;;;;;;13.50;99.90;;;;;;5022398;28;88142;-29
2022/09/15 02:48:40;;;;;;;;;;;13.50;99.90;;;;;;5021707;27;90154;-32
2022/09/15 02:51:06;;;;;;;;;;;13.50;99.90;;;;;;5020824;28;90794;-31
2022/09/15 02:53:31;;;;;;;;;;;13.40;99.90;;;;;;5021594;28;90059;-31
2022/09/15 02:55:57;;;;;;;;;;;13.50;99.90;;;;;;5022212;28;88553;-31
2022/09/15 02:58:23;;;;;;;;;;;13.40;99.90;;;;;;5021478;28;89214;-31
2022/09/15 03:00:49;;;;;;;;;;;13.50;99.90;;;;;;5022054;28;89686;-32
2022/09/15 03:03:15;;;;;;;;;;;13.50;99.90;;;;;;5021248;28;89190;-30
2022/09/15 03:05:41;;;;;;;;;;;13.60;99.90;;;;;;5022981;27;90429;-31
2022/09/15 03:08:06;;;;;;;;;;;13.60;99.90;;;;;;5021738;28;89930;-29
2022/09/15 03:10:32;;;;;;;;;;;13.60;99.90;;;;;;5021403;28;89578;-31
2022/09/15 03:12:57;;;;;;;;;;;13.70;99.90;;;;;;5021565;27;88988;-29
2022/09/15 03:15:24;;;;;;;;;;;13.70;99.90;;;;;;5021073;28;89399;-30
2022/09/15 03:17:50;;;;;;;;;;;13.70;99.90;;;;;;5022196;28;89916;-32
2022/09/15 03:20:23;;;;;;;;;;;13.70;99.90;;;;;;5021319;27;91741;-30
2022/09/15 03:22:49;;;;;;;;;;;13.70;99.90;;;;;;5021349;28;89770;-33
2022/09/15 03:25:15;;;;;;;;;;;13.70;99.90;;;;;;5021682;28;89843;-30
2022/09/15 03:27:41;;;;;;;;;;;13.70;99.90;;;;;;5021448;27;90488;-32
2022/09/15 03:30:07;;;;;;;;;;;13.70;99.90;;;;;;5020272;28;89715;-30
2022/09/15 03:32:33;;;;;;;;;;;13.70;99.90;;;;;;5021134;27;91980;-29
2022/09/15 03:34:58;;;;;;;;;;;13.70;99.90;;;;;;5021928;28;88520;-32
2022/09/15 03:37:24;;;;;;;;;;;13.70;99.90;;;;;;5020499;28;90272;-31
2022/09/15 03:39:50;;;;;;;;;;;13.70;99.90;;;;;;5020276;27;90370;-32
2022/09/15 03:42:15;;;;;;;;;;;13.60;99.90;;;;;;5021211;28;91596;-30
2022/09/15 03:44:41;;;;;;;;;;;13.60;99.90;;;;;;5021370;28;88504;-31
2022/09/15 03:47:06;;;;;;;;;;;13.70;99.90;;;;;;5021319;28;90339;-29
2022/09/15 03:49:32;;;;;;;;;;;13.60;99.90;;;;;;5020902;28;88536;-29
2022/09/15 03:51:58;;;;;;;;;;;13.60;99.90;;;;;;5021259;28;90636;-30
2022/09/15 03:54:24;;;;;;;;;;;13.60;99.90;;;;;;5021066;27;88628;-31
2022/09/15 03:56:50;;;;;;;;;;;13.60;99.90;;;;;;5021469;27;90210;-33
2022/09/15 03:59:17;;;;;;;;;;;13.60;99.90;;;;;;5020982;28;89745;-33
2022/09/15 04:01:44;;;;;;;;;;;13.60;99.90;;;;;;5021944;28;88891;-29
2022/09/15 04:04:10;;;;;;;;;;;13.60;99.90;;;;;;5019788;27;88423;-31
2022/09/15 04:06:35;;;;;;;;;;;13.60;99.90;;;;;;5021007;28;90430;-33
2022/09/15 04:09:01;;;;;;;;;;;13.60;99.90;;;;;;5020976;27;89894;-32
2022/09/15 04:11:27;;;;;;;;;;;13.60;99.90;;;;;;5020380;27;89333;-30
2022/09/15 04:13:52;;;;;;;;;;;13.50;99.90;;;;;;5021026;28;88392;-31
2022/09/15 04:16:19;;;;;;;;;;;13.60;99.90;;;;;;5020923;27;89738;-29
2022/09/15 04:18:45;;;;;;;;;;;13.60;99.90;;;;;;5020646;27;90121;-31
2022/09/15 04:21:12;;;;;;;;;;;13.50;99.90;;;;;;5021047;27;89534;-31
2022/09/15 04:23:38;;;;;;;;;;;13.50;99.90;;;;;;5020685;27;90730;-31
2022/09/15 04:26:05;;;;;;;;;;;13.50;99.90;;;;;;5021215;28;90092;-31
2022/09/15 04:28:31;;;;;;;;;;;13.50;99.90;;;;;;5019712;28;90477;-30
2022/09/15 04:31:04;;;;;;;;;;;13.50;99.90;;;;;;5020983;27;90844;-30
2022/09/15 04:33:30;;;;;;;;;;;13.50;99.90;;;;;;5020312;27;88157;-29
2022/09/15 04:35:59;;;;;;;;;;;13.50;99.90;;;;;;5020843;27;89929;-33
2022/09/15 04:38:24;;;;;;;;;;;13.50;99.90;;;;;;5020687;28;90902;-30
2022/09/15 04:40:50;;;;;;;;;;;13.50;99.90;;;;;;5020343;28;89616;-31
2022/09/15 04:43:16;;;;;;;;;;;13.40;99.90;;;;;;5021193;27;88756;-29
2022/09/15 04:45:42;;;;;;;;;;;13.40;99.90;;;;;;5020553;28;90095;-30
2022/09/15 04:48:07;;;;;;;;;;;13.40;99.90;;;;;;5019720;28;89585;-29
2022/09/15 04:50:33;;;;;;;;;;;13.40;99.90;;;;;;5023765;28;89225;-31
2022/09/15 04:52:58;;;;;;;;;;;13.40;99.90;;;;;;5023027;27;90242;-29
2022/09/15 04:55:25;;;;;;;;;;;13.40;99.90;;;;;;5023739;28;90272;-30
2022/09/15 04:57:51;;;;;;;;;;;13.30;99.90;;;;;;5023924;27;89698;-30
2022/09/15 05:00:16;;;;;;;;;;;13.30;99.90;;;;;;5022852;28;89246;-32
2022/09/15 05:02:42;;;;;;;;;;;13.30;99.90;;;;;;5024025;28;87802;-33
2022/09/15 05:05:08;;;;;;;;;;;13.30;99.90;;;;;;5023706;27;89672;-29
2022/09/15 05:07:33;;;;;;;;;;;13.30;99.90;;;;;;5023761;28;89634;-29
2022/09/15 05:09:59;;;;;;;;;;;13.20;99.90;;;;;;5023476;28;89081;-30
2022/09/15 05:12:24;;;;;;;;;;;13.20;99.90;;;;;;5023662;28;89003;-32
2022/09/15 05:14:49;;;;;;;;;;;13.10;99.90;;;;;;5023560;28;91945;-29
2022/09/15 05:17:15;;;;;;;;;;;13.10;99.90;;;;;;5021950;28;90623;-30
2022/09/15 05:19:40;;;;;;;;;;;13.00;99.90;;;;;;5022852;28;89975;-31
2022/09/15 05:22:06;;;;;;;;;;;13.10;99.90;;;;;;5023490;28;87684;-28
2022/09/15 05:24:33;;;;;;;;;;;13.00;99.90;;;;;;5023111;28;90338;-29
2022/09/15 05:26:58;;;;;;;;;;;13.10;99.90;;;;;;5023411;28;89530;-31
2022/09/15 05:29:24;;;;;;;;;;;13.10;99.90;;;;;;5023200;27;89485;-34
2022/09/15 05:31:49;;;;;;;;;;;13.10;99.90;;;;;;5023080;27;88626;-31
2022/09/15 05:34:15;;;;;;;;;;;13.10;99.90;;;;;;5012669;28;90492;-31
2022/09/15 05:36:40;;;;;;;;;;;13.20;99.90;;;;;;5023088;27;90224;-29
2022/09/15 05:39:06;;;;;;;;;;;13.20;99.90;;;;;;5023258;28;89723;-31
2022/09/15 05:41:31;;;;;;;;;;;13.20;99.90;;;;;;5023412;27;88162;-32
2022/09/15 05:43:58;;;;;;;;;;;13.20;99.90;;;;;;5011980;27;91631;-30
2022/09/15 05:46:27;;;;;;;;;;;13.30;99.90;;;;;;5019203;28;89777;-34
2022/09/15 05:48:54;;;;;;;;;;;13.30;99.90;;;;;;5018634;27;89879;-32
2022/09/15 05:51:20;;;;;;;;;;;13.30;99.90;;;;;;5023116;27;89102;-31
2022/09/15 05:53:46;;;;;;;;;;;13.30;99.90;;;;;;5021067;27;92134;-30
2022/09/15 05:56:12;;;;;;;;;;;13.30;99.90;;;;;;5020417;27;89307;-30
2022/09/15 05:58:42;;;;;;;;;;;13.30;99.90;;;;;;5022308;27;88890;-31
2022/09/15 06:01:08;;;;;;;;;;;13.30;99.90;;;;;;5021584;27;90166;-32
2022/09/15 06:03:34;;;;;;;;;;;13.40;99.90;;;;;;5010905;27;90348;-33
2022/09/15 06:06:00;;;;;;;;;;;13.40;99.90;;;;;;5018777;28;90876;-30
2022/09/15 06:08:45;;;;;;;;;;;13.40;99.90;;;;;;5022185;27;89975;-31
2022/09/15 06:11:12;;;;;;;;;;;13.40;99.90;;;;;;5023129;27;89741;-29
2022/09/15 06:13:38;;;;;;;;;;;13.30;99.90;;;;;;5022776;27;90309;-29
2022/09/15 06:16:08;;;;;;;;;;;13.40;99.90;;;;;;5022665;28;89362;-31
2022/09/15 06:18:34;;;;;;;;;;;13.40;99.90;;;;;;5017615;27;89580;-30
2022/09/15 06:21:04;;;;;;;;;;;13.40;99.90;;;;;;5012253;28;89283;-30
2022/09/15 06:23:29;;;;;;;;;;;13.40;99.90;;;;;;5018635;27;91429;-32
2022/09/15 06:25:55;;;;;;;;;;;13.50;99.90;;;;;;5020681;27;89749;-32
2022/09/15 06:28:20;;;;;;;;;;;13.50;99.90;;;;;;5017473;28;89081;-33
2022/09/15 06:30:48;;;;;;;;;;;13.50;99.90;;;;;;5018918;28;89456;-30
2022/09/15 06:33:14;;;;;;;;;;;13.60;99.90;;;;;;5019812;28;90849;-32
2022/09/15 06:35:40;;;;;;;;;;;13.60;99.90;;;;;;5020103;28;89922;-30
2022/09/15 06:38:06;;;;;;;;;;;13.70;99.90;;;;;;5009832;27;89061;-32
2022/09/15 06:40:32;;;;;;;;;;;13.80;99.90;;;;;;5018104;28;88664;-33
2022/09/15 06:42:58;;;;;;;;;;;13.90;99.90;;;;;;5019641;27;89806;-33
2022/09/15 06:45:23;;;;;;;;;;;13.90;99.90;;;;;;5019456;27;90096;-32
2022/09/15 06:47:50;;;;;;;;;;;14.00;99.90;;;;;;5020464;28;88998;-31
2022/09/15 06:50:16;;;;;;;;;;;14.00;99.90;;;;;;5006775;27;89452;-34
2022/09/15 06:52:42;;;;;;;;;;;14.00;99.90;;;;;;5006818;28;90328;-33
2022/09/15 06:55:08;;;;;;;;;;;14.10;99.90;;;;;;5007862;27;90539;-29
2022/09/15 06:57:33;;;;;;;;;;;14.10;99.90;;;;;;5015892;28;90855;-32
2022/09/15 06:59:59;;;;;;;;;;;14.10;99.90;;;;;;5010035;28;88852;-32
2022/09/15 07:02:24;;;;;;;;;;;14.10;99.90;;;;;;5017846;28;90593;-32
2022/09/15 07:04:50;;;;;;;;;;;14.20;99.90;;;;;;5019288;28;90770;-32
2022/09/15 07:07:15;;;;;;;;;;;14.20;99.90;;;;;;5019195;28;89900;-32
2022/09/15 07:09:41;;;;;;;;;;;14.30;99.90;;;;;;5020307;28;88800;-33
2022/09/15 07:12:07;;;;;;;;;;;14.50;99.90;;;;;;5019373;27;90263;-33
2022/09/15 07:14:32;;;;;;;;;;;14.50;99.90;;;;;;5019517;27;89575;-32
2022/09/15 07:16:57;;;;;;;;;;;14.60;99.90;;;;;;5019426;28;89177;-30
2022/09/15 07:19:23;;;;;;;;;;;14.80;99.90;;;;;;5018693;28;89777;-34
2022/09/15 07:21:49;;;;;;;;;;;14.90;99.90;;;;;;5019116;28;90094;-34
2022/09/15 07:24:14;;;;;;;;;;;15.00;99.90;;;;;;5019244;27;89986;-31
2022/09/15 07:26:40;;;;;;;;;;;15.10;99.90;;;;;;5019458;28;89142;-33
2022/09/15 07:29:06;;;;;;;;;;;15.20;99.90;;;;;;5019680;27;87688;-31
2022/09/15 07:31:32;;;;;;;;;;;15.30;99.90;;;;;;5018695;28;90444;-34
2022/09/15 07:33:58;;;;;;;;;;;15.40;99.90;;;;;;5019130;27;89390;-34
2022/09/15 07:36:24;;;;;;;;;;;15.40;99.90;;;;;;5019411;27;89016;-32
2022/09/15 07:38:50;;;;;;;;;;;15.50;99.90;;;;;;5019476;28;88701;-32
2022/09/15 07:41:17;;;;;;;;;;;15.60;99.90;;;;;;5018271;27;90146;-31
2022/09/15 07:43:46;;;;;;;;;;;15.70;99.90;;;;;;5018678;27;90722;-29
2022/09/15 07:46:12;;;;;;;;;;;15.80;99.90;;;;;;5019116;27;89972;-35
2022/09/15 07:48:37;;;;;;;;;;;15.80;99.90;;;;;;5019631;28;88772;-32
2022/09/15 07:51:03;;;;;;;;;;;15.80;99.90;;;;;;5018768;28;90523;-30
2022/09/15 07:53:29;;;;;;;;;;;15.80;99.90;;;;;;5019013;28;90730;-33
2022/09/15 07:55:55;;;;;;;;;;;15.90;99.90;;;;;;5018542;27;88847;-31
2022/09/15 07:58:21;;;;;;;;;;;15.90;99.90;;;;;;5019626;27;89142;-33
2022/09/15 08:00:47;;;;;;;;;;;16.00;99.90;;;;;;5018209;27;90115;-33
2022/09/15 08:03:12;;;;;;;;;;;16.10;99.90;;;;;;5004696;28;89579;-31
2022/09/15 08:05:38;;;;;;;;;;;16.20;99.90;;;;;;5018930;27;89864;-30
2022/09/15 08:08:03;;;;;;;;;;;16.30;99.90;;;;;;5018411;28;89413;-30
2022/09/15 08:10:29;;;;;;;;;;;16.30;99.90;;;;;;5018494;28;89774;-31
2022/09/15 08:12:54;;;;;;;;;;;16.40;99.90;;;;;;5018848;28;90507;-31
2022/09/15 08:15:20;;;;;;;;;;;16.60;99.90;;;;;;5019189;28;89661;-33
2022/09/15 08:17:45;;;;;;;;;;;16.70;99.90;;;;;;5018068;28;89262;-31
2022/09/15 08:20:11;;;;;;;;;;;16.80;99.90;;;;;;5018972;28;90044;-37
2022/09/15 08:22:38;;;;;;;;;;;17.00;99.90;;;;;;5018780;27;91004;-33
2022/09/15 08:25:03;;;;;;;;;;;17.20;99.90;;;;;;5021888;27;88655;-30
2022/09/15 08:27:29;;;;;;;;;;;17.40;99.90;;;;;;5022637;28;90026;-32
2022/09/15 08:29:54;;;;;;;;;;;17.60;99.90;;;;;;5021409;28;90538;-31
2022/09/15 08:32:20;;;;;;;;;;;17.70;99.90;;;;;;5021531;28;90719;-32
2022/09/15 08:34:45;;;;;;;;;;;17.70;99.90;;;;;;5021684;28;90445;-30
2022/09/15 08:37:11;;;;;;;;;;;17.60;99.90;;;;;;5022507;28;89229;-30
2022/09/15 08:39:36;;;;;;;;;;;17.50;99.90;;;;;;5021225;28;90350;-32
2022/09/15 08:42:02;;;;;;;;;;;17.50;99.90;;;;;;5021172;28;90192;-33
2022/09/15 08:44:48;;;;;;;;;;;17.70;99.90;;;;;;5021557;27;89345;-31
2022/09/15 08:47:24;;;;;;;;;;;17.80;99.90;;;;;;5021401;28;87775;-33
2022/09/15 08:49:53;;;;;;;;;;;18.00;99.90;;;;;;5021647;27;89720;-32
2022/09/15 08:52:22;;;;;;;;;;;18.00;99.90;;;;;;5020877;28;89451;-34
2022/09/15 08:54:49;;;;;;;;;;;18.00;99.90;;;;;;5021632;28;89094;-32
2022/09/15 08:57:17;;;;;;;;;;;17.90;99.90;;;;;;5021244;27;89106;-32
2022/09/15 08:59:43;;;;;;;;;;;17.90;99.90;;;;;;5021582;27;90318;-32
2022/09/15 09:02:11;;;;;;;;;;;17.80;99.90;;;;;;5021815;27;90238;-33
2022/09/15 09:04:44;;;;;;;;;;;17.90;99.90;;;;;;5020059;28;88904;-33
2022/09/15 09:07:30;;;;;;;;;;;17.90;99.90;;;;;;5020785;27;88723;-30
2022/09/15 09:10:07;;;;;;;;;;;18.00;99.90;;;;;;4985754;28;90304;-32
2022/09/15 09:12:32;;;;;;;;;;;18.10;99.90;;;;;;5021704;27;89096;-32
2022/09/15 09:14:58;;;;;;;;;;;18.30;99.90;;;;;;5021105;28;89383;-34
2022/09/15 09:17:36;;;;;;;;;;;18.50;99.90;;;;;;5021721;28;89032;-32
2022/09/15 09:20:11;;;;;;;;;;;18.50;99.90;;;;;;5019802;28;90602;-34
2022/09/15 09:22:38;;;;;;;;;;;18.60;99.90;;;;;;5021053;27;90810;-33
2022/09/15 09:25:04;;;;;;;;;;;18.70;99.90;;;;;;5020467;27;90387;-31
2022/09/15 09:27:33;;;;;;;;;;;18.70;99.90;;;;;;5021331;27;87631;-32
2022/09/15 09:30:06;;;;;;;;;;;18.70;99.90;;;;;;5016447;28;90457;-32
2022/09/15 09:32:39;;;;;;;;;;;18.80;99.90;;;;;;5022201;27;90056;-31
2022/09/15 09:35:04;;;;;;;;;;;19.00;99.90;;;;;;5014866;27;89003;-32
2022/09/15 09:37:31;;;;;;;;;;;19.00;99.90;;;;;;5022422;27;90025;-35
2022/09/15 09:39:57;;;;;;;;;;;18.90;99.90;;;;;;5020423;28;90552;-31
2022/09/15 09:42:25;;;;;;;;;;;18.80;99.90;;;;;;5011458;28;89720;-33
2022/09/15 09:44:51;;;;;;;;;;;18.70;99.90;;;;;;5015669;27;90104;-31
2022/09/15 09:47:17;;;;;;;;;;;18.60;99.90;;;;;;5014430;28;89187;-34
2022/09/15 09:49:45;;;;;;;;;;;18.60;99.90;;;;;;5016850;28;90617;-31
2022/09/15 09:52:11;;;;;;;;;;;18.60;99.90;;;;;;5020076;27;89574;-31
2022/09/15 09:54:36;;;;;;;;;;;18.60;99.90;;;;;;5020721;27;89312;-33
2022/09/15 09:57:40;;;;;;;;;;;18.50;99.90;;;;;;5015634;27;88486;-35
2022/09/15 10:00:26;;;;;;;;;;;18.40;99.90;;;;;;4995809;28;90222;-34
2022/09/15 10:02:51;;;;;;;;;;;18.40;99.90;;;;;;4997899;28;90030;-33
2022/09/15 10:05:18;;;;;;;;;;;18.40;99.90;;;;;;5008509;28;90005;-34
2022/09/15 10:07:44;;;;;;;;;;;18.40;99.90;;;;;;5011832;28;90392;-31
2022/09/15 10:10:20;;;;;;;;;;;18.30;99.90;;;;;;5015720;27;90856;-30
2022/09/15 10:12:46;;;;;;;;;;;18.20;99.90;;;;;;5011726;28;89763;-33
2022/09/15 10:15:32;;;;;;;;;;;18.20;99.90;;;;;;5020410;27;89658;-35
2022/09/15 10:17:58;;;;;;;;;;;18.30;99.90;;;;;;5020117;28;88105;-32
2022/09/15 10:20:27;;;;;;;;;;;18.40;99.90;;;;;;5019554;28;91421;-31
2022/09/15 10:23:06;;;;;;;;;;;18.40;99.90;;;;;;5019647;27;89759;-33
2022/09/15 10:25:33;;;;;;;;;;;18.40;99.90;;;;;;5019855;27;88990;-33
2022/09/15 10:28:09;;;;;;;;;;;18.40;99.90;;;;;;5020841;28;89638;-34
2022/09/15 10:30:35;;;;;;;;;;;18.50;99.90;;;;;;5019776;27;90032;-31
2022/09/15 10:33:27;;;;;;;;;;;18.30;99.90;;;;;;5019654;28;89700;-30
2022/09/15 10:35:53;;;;;;;;;;;18.10;99.90;;;;;;5018559;28;89087;-32
2022/09/15 10:38:28;;;;;;;;;;;18.00;99.90;;;;;;5019169;28;88953;-34
2022/09/15 10:40:54;;;;;;;;;;;18.00;99.90;;;;;;5007437;27;91030;-31
2022/09/15 10:43:22;;;;;;;;;;;18.10;99.90;;;;;;5018929;27;91523;-33
2022/09/15 10:45:51;;;;;;;;;;;18.00;99.90;;;;;;5018585;27;88528;-33
2022/09/15 10:48:25;;;;;;;;;;;18.10;99.90;;;;;;5019850;27;89408;-34
2022/09/15 10:50:56;;;;;;;;;;;18.10;99.90;;;;;;5020479;27;90440;-32
2022/09/15 10:53:25;;;;;;;;;;;18.10;99.90;;;;;;5011905;27;89531;-32
2022/09/15 10:56:05;;;;;;;;;;;18.20;99.90;;;;;;5012606;27;89393;-34
2022/09/15 10:58:31;;;;;;;;;;;18.10;99.90;;;;;;5012594;27;88485;-34
2022/09/15 11:00:57;;;;;;;;;;;18.10;99.90;;;;;;5017489;27;90294;-31
2022/09/15 11:03:41;;;;;;;;;;;18.00;99.90;;;;;;5006927;28;90172;-33
2022/09/15 11:06:17;;;;;;;;;;;18.00;99.90;;;;;;5012208;27;90031;-30
2022/09/15 11:08:52;;;;;;;;;;;17.90;99.90;;;;;;5012560;27;89842;-33
2022/09/15 11:11:17;;;;;;;;;;;17.90;99.90;;;;;;5005902;28;89430;-32
2022/09/15 11:13:58;;;;;;;;;;;17.90;99.90;;;;;;5019892;28;89521;-31
2022/09/15 11:16:31;;;;;;;;;;;17.90;99.90;;;;;;5019505;28;89349;-32
2022/09/15 11:19:02;;;;;;;;;;;17.90;99.90;;;;;;5006854;28;89537;-32
2022/09/15 11:21:34;;;;;;;;;;;17.80;99.90;;;;;;5018679;28;90127;-31
2022/09/15 11:24:19;;;;;;;;;;;17.70;99.90;;;;;;5005698;28;89715;-31
2022/09/15 11:26:47;;;;;;;;;;;17.70;99.90;;;;;;4986761;27;89038;-33
2022/09/15 11:29:14;;;;;;;;;;;17.70;99.90;;;;;;5019164;28;89382;-34
2022/09/15 11:31:45;;;;;;;;;;;17.80;99.90;;;;;;5019481;27;90204;-30
2022/09/15 11:34:29;;;;;;;;;;;17.80;99.90;;;;;;5020050;27;89671;-31
2022/09/15 11:37:02;;;;;;;;;;;17.80;99.90;;;;;;5019375;28;90005;-33
2022/09/15 11:39:46;;;;;;;;;;;17.80;99.90;;;;;;5019672;28;87905;-32
2022/09/15 11:42:20;;;;;;;;;;;17.90;99.90;;;;;;5018013;28;90452;-34
2022/09/15 11:44:46;;;;;;;;;;;18.10;99.90;;;;;;5019970;27;89989;-32
2022/09/15 11:47:21;;;;;;;;;;;18.20;99.90;;;;;;5018874;27;88879;-32
2022/09/15 11:49:53;;;;;;;;;;;18.30;99.90;;;;;;5019735;28;88155;-32
2022/09/15 11:52:32;;;;;;;;;;;18.20;99.90;;;;;;5018601;28;89790;-34
2022/09/15 11:55:17;;;;;;;;;;;18.30;99.90;;;;;;5018532;28;91465;-34
2022/09/15 11:57:46;;;;;;;;;;;18.40;99.90;;;;;;4987180;27;90158;-33
2022/09/15 12:00:13;;;;;;;;;;;18.40;99.90;;;;;;5022825;28;88897;-35
2022/09/15 12:02:42;;;;;;;;;;;18.40;99.90;;;;;;5022914;27;90679;-31
2022/09/15 12:05:18;;;;;;;;;;;18.30;99.90;;;;;;5022717;27;89469;-29
2022/09/15 12:07:47;;;;;;;;;;;18.30;99.90;;;;;;5022278;27;89326;-32
2022/09/15 12:10:16;;;;;;;;;;;18.20;99.90;;;;;;5022304;27;89127;-33
2022/09/15 12:12:43;;;;;;;;;;;18.20;99.90;;;;;;5022792;27;89910;-31
2022/09/15 12:15:16;;;;;;;;;;;18.30;99.90;;;;;;5021462;28;89742;-30
2022/09/15 12:17:55;;;;;;;;;;;18.30;99.90;;;;;;5022277;27;89953;-32
2022/09/15 12:20:27;;;;;;;;;;;18.30;99.90;;;;;;5016427;28;89570;-34
2022/09/15 12:23:04;;;;;;;;;;;18.50;99.90;;;;;;5021547;27;90128;-30
2022/09/15 12:25:53;;;;;;;;;;;18.50;99.90;;;;;;5021468;27;89414;-35
2022/09/15 12:28:22;;;;;;;;;;;18.50;99.90;;;;;;5018039;28;89359;-32
2022/09/15 12:31:06;;;;;;;;;;;18.50;99.90;;;;;;5021996;28;88525;-34
2022/09/15 12:33:41;;;;;;;;;;;18.50;99.90;;;;;;5021340;28;90123;-31
2022/09/15 12:36:26;;;;;;;;;;;18.60;99.90;;;;;;5021323;28;89757;-34
2022/09/15 12:38:52;;;;;;;;;;;18.60;99.90;;;;;;5022949;28;89516;-32
2022/09/15 12:41:17;;;;;;;;;;;18.70;99.90;;;;;;5060332;22;88884;-33
2022/09/15 12:43:53;;;;;;;;;;;18.70;99.90;;;;;;5021053;28;90968;-33
2022/09/15 12:46:19;;;;;;;;;;;18.70;99.90;;;;;;5020237;28;91598;-31
2022/09/15 12:48:44;;;;;;;;;;;18.90;99.90;;;;;;5022041;27;89487;-31
2022/09/15 12:51:10;;;;;;;;;;;19.10;99.90;;;;;;5022185;27;88844;-32
2022/09/15 12:53:37;;;;;;;;;;;19.20;99.90;;;;;;5021423;27;90206;-31
2022/09/15 12:56:06;;;;;;;;;;;19.30;99.90;;;;;;5020594;27;89681;-33
2022/09/15 12:58:44;;;;;;;;;;;19.20;99.90;;;;;;5021474;27;89560;-32
2022/09/15 13:01:25;;;;;;;;;;;19.20;99.90;;;;;;5021908;27;89746;-34
2022/09/15 13:03:56;;;;;;;;;;;19.10;99.90;;;;;;5021082;28;90187;-31
2022/09/15 13:06:26;;;;;;;;;;;19.00;99.90;;;;;;5020815;27;89950;-32
2022/09/15 13:09:00;;;;;;;;;;;19.00;99.90;;;;;;5020247;27;89147;-33
2022/09/15 13:11:26;;;;;;;;;;;19.00;99.90;;;;;;5018790;28;90553;-32
2022/09/15 13:13:54;;;;;;;;;;;19.20;99.90;;;;;;5021056;27;89992;-33
2022/09/15 13:16:29;;;;;;;;;;;19.30;99.90;;;;;;5016412;27;89981;-31
2022/09/15 13:19:13;;;;;;;;;;;19.30;99.90;;;;;;5021236;27;90315;-33
2022/09/15 13:21:41;;;;;;;;;;;19.20;99.90;;;;;;5020547;27;88421;-31
2022/09/15 13:24:11;;;;;;;;;;;19.00;99.90;;;;;;5020728;27;90283;-31
2022/09/15 13:26:37;;;;;;;;;;;18.90;99.90;;;;;;5016325;27;89706;-32
2022/09/15 13:29:04;;;;;;;;;;;18.90;99.90;;;;;;5017125;27;89530;-34
2022/09/15 13:31:36;;;;;;;;;;;18.80;99.90;;;;;;5020468;27;88135;-33
2022/09/15 13:34:11;;;;;;;;;;;18.70;99.90;;;;;;5016488;27;90302;-34
2022/09/15 13:36:55;;;;;;;;;;;18.60;99.90;;;;;;5020064;28;91134;-31
2022/09/15 13:39:39;;;;;;;;;;;18.50;99.90;;;;;;5016296;27;89209;-31
2022/09/15 13:42:20;;;;;;;;;;;18.40;99.90;;;;;;5014628;28;89606;-33
2022/09/15 13:44:45;;;;;;;;;;;18.30;99.90;;;;;;5012503;28;90607;-29
2022/09/15 13:47:23;;;;;;;;;;;18.10;99.90;;;;;;5017234;27;89489;-30
2022/09/15 13:50:10;;;;;;;;;;;17.70;99.90;;;;;;5020582;27;89176;-32
2022/09/15 13:52:35;;;;;;;;;;;17.20;99.90;;;;;;5019280;27;89367;-31
2022/09/15 13:55:13;;;;;;;;;;;16.60;99.90;;;;;;5012737;28;90139;-32
2022/09/15 13:57:40;;;;;;;;;;;16.30;99.90;;;;;;5011119;27;89277;-31
2022/09/15 14:00:17;;;;;;;;;;;16.10;99.90;;;;;;5020649;27;90253;-32
2022/09/15 14:02:45;;;;;;;;;;;15.90;99.90;;;;;;5010572;28;89996;-30
2022/09/15 14:05:12;;;;;;;;;;;15.80;99.90;;;;;;5020412;28;91427;-37
2022/09/15 14:07:37;;;;;;;;;;;15.70;99.90;;;;;;5020663;27;89232;-32
2022/09/15 14:10:03;;;;;;;;;;;15.70;99.90;;;;;;5020620;27;88942;-33
2022/09/15 14:12:28;;;;;;;;;;;15.70;99.90;;;;;;5020576;27;89688;-32
2022/09/15 14:14:57;;;;;;;;;;;15.60;99.90;;;;;;5020353;28;89434;-33
2022/09/15 14:17:24;;;;;;;;;;;15.60;99.90;;;;;;5020543;28;89584;-31
2022/09/15 14:19:50;;;;;;;;;;;15.60;99.90;;;;;;5021072;27;89051;-32
2022/09/15 14:22:16;;;;;;;;;;;15.70;99.90;;;;;;5005244;28;90139;-33
2022/09/15 14:24:42;;;;;;;;;;;15.80;99.90;;;;;;5020185;28;90213;-30
2022/09/15 14:27:08;;;;;;;;;;;15.90;99.90;;;;;;5019738;28;89502;-31